Latest Coastal Weather Observations for Wadeye (Port Keats)

IDD60701

Issued at 2:41 am CST Thursday 28 July 2016 (issued every 10 minutes, with the page automatically refreshed every 10 minutes)

About coastal observations | Map of coastal stations | Coastal observations for NT | Marine services | Other Formats
Station Details ID: 014948 Name: PORT KEATS AIRPORT Lat: -14.25 Lon: 129.53 Height: 28.0 m
Data from the previous 72 hours. | See also: Recent months at Wadeye (Port Keats)
Date/Time
CST
Temp
°C
Wind Pressure Rain since
9am
mm
Weather Cloud Vis
km
Sea
Height
m
Swell
Dir  Spd
kts
Gust
kts
hPa Trend Height
m
Period
s
Dir
28/02:30am 24.2 SE 10 13 - - 0.0 - - - - - - -
28/02:00am 24.6 SE 9 13 - - 0.0 - - - - - - -
28/01:30am 24.8 SE 10 15 - - 0.0 - - - - - - -
28/01:00am 25.0 SE 11 15 - - 0.0 - - - - - - -
28/12:30am 25.1 SE 9 13 - - 0.0 - - - - - - -
28/12:00am 23.1 SSE 6 9 - - 0.0 - - - - - - -
 
Date/Time
CST
Temp
°C
Wind Pressure Rain since
9am
mm
Weather Cloud Vis
km
Sea
Height
m
Swell
Dir  Spd
kts
Gust
kts
hPa Trend Height
m
Period
s
Dir
27/11:30pm 23.1 SSE 6 8 - - 0.0 - - - - - - -
27/11:00pm 23.2 S 5 7 - - 0.0 - - - - - - -
27/10:30pm 24.0 S 5 8 - - 0.0 - - - - - - -
27/10:00pm 23.8 S 5 7 - - 0.0 - - - - - - -
27/09:30pm 24.5 SSE 5 8 - - 0.0 - - - - - - -
27/09:00pm 23.7 S 4 6 - - 0.0 - - - - - - -
27/08:30pm 23.9 SSE 4 6 - - 0.0 - - - - - - -
27/08:00pm 25.1 SSE 4 4 - - 0.0 - - - - - - -
27/07:30pm 26.4 SSE 3 4 - - 0.0 - - - - - - -
27/07:00pm 28.3 SSE 3 5 - - 0.0 - - - - - - -
27/06:30pm 30.0 SSE 6 8 - - 0.0 - - - - - - -
27/06:00pm 31.2 SE 9 12 - - 0.0 - - - - - - -
27/05:30pm 31.8 SE 12 16 - - 0.0 - - - - - - -
27/05:00pm 31.9 SE 11 18 - - 0.0 - - - - - - -
27/04:30pm 32.2 SE 12 16 - - 0.0 - - - - - - -
27/04:00pm 31.7 SE 13 17 - - 0.0 - - - - - - -
27/03:30pm 32.0 ESE 8 15 - - 0.0 - - - - - - -
27/03:00pm 31.7 SE 14 21 - - 0.0 - - - - - - -
27/02:30pm 31.9 ESE 9 13 - - 0.0 - - - - - - -
27/02:00pm 31.3 ESE 12 19 - - 0.0 - - - - - - -
27/01:30pm 32.0 SE 11 15 - - 0.0 - - - - - - -
27/01:00pm 31.1 SE 12 17 - - 0.0 - - - - - - -
27/12:30pm 30.1 ESE 11 16 - - 0.0 - - - - - - -
27/12:00pm 30.4 E 11 17 - - 0.0 - - - - - - -
27/11:30am 29.1 ESE 12 18 - - 0.0 - - - - - - -
27/11:00am 28.9 ESE 11 16 - - 0.0 - - - - - - -
27/10:30am 27.8 SE 12 16 - - 0.0 - - - - - - -
27/10:00am 26.9 SE 11 16 - - 0.0 - - - - - - -
27/09:30am 25.3 SE 11 15 - - 0.0 - - - - - - -
27/09:00am 24.7 SE 11 16 - - 0.0 - - - - - - -
27/08:30am 23.7 SE 10 13 - - 0.0 - - - - - - -
27/08:00am 23.3 SE 9 13 - - 0.0 - - - - - - -
27/07:30am 22.7 SE 9 15 - - 0.0 - - - - - - -
27/07:00am 23.0 SE 11 14 - - 0.0 - - - - - - -
27/06:30am 23.2 SE 9 13 - - 0.0 - - - - - - -
27/06:00am 23.9 SE 11 14 - - 0.0 - - - - - - -
27/05:30am 24.1 SE 9 12 - - 0.0 - - - - - - -
27/05:00am 24.6 SE 9 12 - - 0.0 - - - - - - -
27/04:30am 24.7 SE 9 13 - - 0.0 - - - - - - -
27/04:00am 24.8 SE 9 11 - - 0.0 - - - - - - -
27/03:39am 23.6 SE 7 9 - - 0.0 - - - - - - -
27/03:30am 18.4 SE 6 7 - - 0.0 - - - - - - -
27/03:00am 18.4 SSE 5 6 - - 0.0 - - - - - - -
27/02:30am 17.8 SSE 5 6 - - 0.0 - - - - - - -
27/02:00am 18.2 SE 4 5 - - 0.0 - - - - - - -
27/01:30am 18.6 SSE 4 5 - - 0.0 - - - - - - -
27/01:00am 19.0 SSE 4 5 - - 0.0 - - - - - - -
27/12:30am 20.5 SE 6 7 - - 0.0 - - - - - - -
27/12:00am 19.3 SE 5 5 - - 0.0 - - - - - - -
 
Date/Time
CST
Temp
°C
Wind Pressure Rain since
9am
mm
Weather Cloud Vis
km
Sea
Height
m
Swell
Dir  Spd
kts
Gust
kts
hPa Trend Height
m
Period
s
Dir
26/11:30pm 19.9 SE 3 5 - - 0.0 - - - - - - -
26/11:00pm 21.6 SE 1 5 - - 0.0 - - - - - - -
26/10:30pm 20.6 SE 2 8 - - 0.0 - - - - - - -
26/10:00pm 20.4 CALM 0 0 - - 0.0 - - - - - - -
26/09:30pm 21.3 CALM 0 0 - - 0.0 - - - - - - -
26/09:00pm 22.0 CALM 0 0 - - 0.0 - - - - - - -
26/08:30pm 23.0 CALM 0 0 - - 0.0 - - - - - - -
26/08:00pm 23.7 CALM 0 0 - - 0.0 - - - - - - -
26/07:30pm 25.0 SW 1 3 - - 0.0 - - - - - - -
26/07:00pm 26.0 WSW 3 5 - - 0.0 - - - - - - -
26/06:30pm 27.4 W 4 6 - - 0.0 - - - - - - -
26/06:00pm 28.9 W 6 8 - - 0.0 - - - - - - -
26/05:30pm 29.5 W 6 9 - - 0.0 - - - - - - -
26/05:00pm 29.9 W 7 10 - - 0.0 - - - - - - -
26/04:30pm 30.2 W 7 11 - - 0.0 - - - - - - -
26/04:00pm 30.7 W 7 11 - - 0.0 - - - - - - -
26/03:30pm 31.1 W 9 13 - - 0.0 - - - - - - -
26/03:00pm 33.6 E 6 9 - - 0.0 - - - - - - -
26/02:30pm 33.1 ENE 5 9 - - 0.0 - - - - - - -
26/02:00pm 32.7 E 8 12 - - 0.0 - - - - - - -
26/01:30pm 31.8 ESE 7 12 - - 0.0 - - - - - - -
26/01:00pm 31.5 ENE 9 14 - - 0.0 - - - - - - -
26/12:30pm 30.8 ENE 8 13 - - 0.0 - - - - - - -
26/12:00pm 30.7 E 7 11 - - 0.0 - - - - - - -
26/11:30am 29.7 E 8 12 - - 0.0 - - - - - - -
26/11:00am 29.3 ENE 9 13 - - 0.0 - - - - - - -
26/10:30am 28.6 ESE 9 12 - - 0.0 - - - - - - -
26/10:00am 27.4 ESE 11 14 - - 0.0 - - - - - - -
26/09:30am 26.8 ESE 10 14 - - 0.0 - - - - - - -
26/09:00am 26.0 ESE 7 9 - - 0.0 - - - - - - -
26/08:30am 24.6 SE 7 10 - - 0.0 - - - - - - -
26/08:00am 23.9 SE 7 11 - - 0.0 - - - - - - -
26/07:30am 21.6 ESE 5 8 - - 0.0 - - - - - - -
26/07:00am 18.7 CALM 0 2 - - 0.0 - - - - - - -
26/06:30am 19.0 SE 4 5 - - 0.0 - - - - - - -
26/06:00am 19.5 SE 4 5 - - 0.0 - - - - - - -
26/05:30am 19.8 SSE 3 5 - - 0.0 - - - - - - -
26/05:00am 19.9 S 2 5 - - 0.0 - - - - - - -
26/04:30am 20.9 S 5 6 - - 0.0 - - - - - - -
26/04:00am 19.2 SSE 3 5 - - 0.0 - - - - - - -
26/03:30am 20.0 SE 2 5 - - 0.0 - - - - - - -
26/03:00am 18.6 CALM 0 0 - - 0.0 - - - - - - -
26/02:30am 18.9 S 3 4 - - 0.0 - - - - - - -
26/02:00am 19.2 CALM 0 0 - - 0.0 - - - - - - -
26/01:30am 19.5 CALM 0 0 - - 0.0 - - - - - - -
26/01:00am 19.4 CALM 0 0 - - 0.0 - - - - - - -
26/12:30am 19.8 CALM 0 0 - - 0.0 - - - - - - -
26/12:00am 20.3 CALM 0 0 - - 0.0 - - - - - - -
 
Date/Time
CST
Temp
°C
Wind Pressure Rain since
9am
mm
Weather Cloud Vis
km
Sea
Height
m
Swell
Dir  Spd
kts
Gust
kts
hPa Trend Height
m
Period
s
Dir
25/11:30pm 20.5 CALM 0 0 - - 0.0 - - - - - - -
25/11:00pm 20.3 CALM 0 0 - - 0.0 - - - - - - -
25/10:30pm 20.9 CALM 0 0 - - 0.0 - - - - - - -
25/10:00pm 21.4 CALM 0 0 - - 0.0 - - - - - - -
25/09:30pm 22.2 CALM 0 0 - - 0.0 - - - - - - -
25/09:00pm 23.0 CALM 0 0 - - 0.0 - - - - - - -
25/08:30pm 23.9 CALM 0 0 - - 0.0 - - - - - - -
25/08:00pm 24.4 CALM 0 0 - - 0.0 - - - - - - -
25/07:30pm 25.5 CALM 0 0 - - 0.0 - - - - - - -
25/07:00pm 26.4 CALM 0 0 - - 0.0 - - - - - - -
25/06:30pm 27.4 WSW 4 7 - - 0.0 - - - - - - -
25/06:00pm 28.7 WSW 5 8 - - 0.0 - - - - - - -
25/05:30pm 29.8 WSW 5 8 - - 0.0 - - - - - - -
25/05:00pm 30.4 WSW 7 11 - - 0.0 - - - - - - -
25/04:30pm 31.3 W 6 9 - - 0.0 - - - - - - -
25/04:00pm 31.7 WNW 7 11 - - 0.0 - - - - - - -
25/03:30pm 30.9 W 8 13 - - 0.0 - - - - - - -
25/03:00pm 31.5 W 9 12 - - 0.0 - - - - - - -
25/02:30pm 31.9 W 8 13 - - 0.0 - - - - - - -
25/02:00pm 34.1 E 5 10 - - 0.0 - - - - - - -
25/01:30pm 32.4 SE 8 13 - - 0.0 - - - - - - -
25/01:00pm 32.8 ESE 9 16 - - 0.0 - - - - - - -
25/12:30pm 32.0 ENE 10 16 - - 0.0 - - - - - - -
25/12:00pm 32.1 ENE 8 14 - - 0.0 - - - - - - -
25/11:30am 30.3 ESE 4 7 - - 0.0 - - - - - - -
25/11:00am 29.8 ESE 6 9 - - 0.0 - - - - - - -
25/10:30am 29.1 ENE 6 9 - - 0.0 - - - - - - -
25/10:00am 28.0 ENE 5 9 - - 0.0 - - - - - - -
25/09:30am 27.2 E 3 4 - - 0.0 - - - - - - -
25/09:00am 25.3 E 3 4 - - 0.0 - - - - - - -
25/08:30am 23.5 CALM 0 0 - - 0.0 - - - - - - -
25/08:00am 22.3 CALM 0 0 - - 0.0 - - - - - - -
25/07:30am 21.1 CALM 0 0 - - 0.0 - - - - - - -
25/07:00am 21.1 CALM 0 0 - - 0.0 - - - - - - -
25/06:30am 21.7 CALM 0 0 - - 0.0 - - - - - - -
25/06:00am 21.7 CALM 0 0 - - 0.0 - - - - - - -
25/05:30am 21.8 CALM 0 0 - - 0.0 - - - - - - -
25/05:00am 21.8 N 5 9 - - 0.0 - - - - - - -
25/04:30am 22.0 CALM 0 0 - - 0.0 - - - - - - -
25/04:00am 21.7 CALM 0 0 - - 0.0 - - - - - - -
25/03:30am 22.3 S 3 5 - - 0.0 - - - - - - -
25/03:00am 21.9 SSW 2 5 - - 0.0 - - - - - - -

Other Formats:

Comma delimited format used in spreadsheet applications
http://www.bom.gov.au/fwo/IDD60701/IDD60701.95111.axf

JavaScript Object Notation format (JSON) in row-major order
http://www.bom.gov.au/fwo/IDD60701/IDD60701.95111.json